秋田空港の過去48時間の天気

秋田空港 (Akita)

現在時刻: 9/19 08:48 JST (9/18 23:48 UTC) 以下の時間は現地時間です。

過去48時間のMETAR気象情報
時間 風向 風速(m/s) 視程 気温(℃) 湿度(%) 気圧(hPa) 天気現象
19 08:16 南東 2 800m 17 100 1015
19 08:00 南東 3 400m 17 100 1015
19 07:00 南南東 3 100m 16 100 1015
19 06:40 南南東 2 100m 15 100 1015
RJSK 182316Z 14004KT 110V180 0800 R28/0500VP2000U FG FEW000 BKN001 17/17 Q1015 RMK 2ST000 7ST001 A2998
RJSK 182300Z 13006KT 0400 R28/0300V0600D FG SCT000 BKN001 17/17 Q1015
RJSK 182200Z 15005KT 110V170 0100 R28/0275N FG BKN000 16/16 Q1015
RJSK 182140Z 15004KT 110V180 0100 R28/0200N FG VV001 15/15 Q1015 RMK A2998